createdAt,value
2018-11-06T00:07:00.452Z,23.1
2018-11-06T00:16:59.658Z,23
2018-11-06T00:26:58.873Z,23
2018-11-06T00:36:58.085Z,23
2018-11-06T00:46:57.293Z,23
2018-11-06T00:56:56.511Z,23
2018-11-06T01:06:55.720Z,23
2018-11-06T01:16:54.934Z,23
2018-11-06T01:26:54.148Z,23
2018-11-06T01:36:53.362Z,22.9
2018-11-06T01:46:52.575Z,22.9
2018-11-06T01:56:51.796Z,22.9
2018-11-06T02:06:51.007Z,22.9
2018-11-06T02:16:50.214Z,22.9
2018-11-06T02:26:49.432Z,22.9
2018-11-06T02:36:48.653Z,22.9
2018-11-06T02:46:47.855Z,22.9
2018-11-06T02:56:47.077Z,22.9
2018-11-06T03:06:46.299Z,22.8
2018-11-06T03:16:45.555Z,22.8
2018-11-06T03:26:44.732Z,22.8
2018-11-06T03:36:43.924Z,22.8
2018-11-06T03:46:43.147Z,22.8
2018-11-06T03:56:42.355Z,22.8
2018-11-06T04:06:41.560Z,22.8
2018-11-06T04:16:40.778Z,22.8
2018-11-06T04:26:39.984Z,22.8
2018-11-06T04:36:39.209Z,22.8
2018-11-06T04:46:38.419Z,22.8
2018-11-06T04:56:37.629Z,22.8
2018-11-06T05:06:36.844Z,22.8
2018-11-06T05:16:36.061Z,22.8
2018-11-06T05:26:35.278Z,22.7
2018-11-06T05:36:34.490Z,22.8
2018-11-06T05:46:33.709Z,22.7
2018-11-06T05:56:32.918Z,22.8
2018-11-06T06:06:32.131Z,22.8
2018-11-06T06:16:31.391Z,22.8
2018-11-06T06:26:30.560Z,22.8
2018-11-06T06:36:29.774Z,22.8
2018-11-06T06:46:29.069Z,22.8
2018-11-06T06:56:28.199Z,22.8
2018-11-06T07:06:27.413Z,22.8
2018-11-06T07:16:26.626Z,22.8
2018-11-06T07:26:25.838Z,22.9
2018-11-06T07:36:25.047Z,22.9
2018-11-06T07:46:24.260Z,22.9
2018-11-06T07:56:23.585Z,22.9
2018-11-06T08:06:22.794Z,22.9
2018-11-06T08:16:21.910Z,23
2018-11-06T08:26:21.128Z,23
2018-11-06T08:36:20.345Z,23
2018-11-06T08:46:19.546Z,23.1
2018-11-06T08:56:18.755Z,23.1
2018-11-06T09:06:17.966Z,23.1
2018-11-06T09:16:17.181Z,23.1
2018-11-06T09:26:16.390Z,23.2
2018-11-06T09:36:15.605Z,23.2
2018-11-06T09:46:14.818Z,23.2
2018-11-06T09:56:14.034Z,23.2
2018-11-06T10:06:13.351Z,23.2
2018-11-06T10:16:12.504Z,23.2
2018-11-06T10:26:11.672Z,23.3
2018-11-06T10:36:10.881Z,23.3
2018-11-06T10:46:10.095Z,23.3
2018-11-06T10:56:09.305Z,23.3
2018-11-06T11:06:08.518Z,23.3
2018-11-06T11:16:07.729Z,23.3
2018-11-06T11:26:06.946Z,23.3
2018-11-06T11:36:06.161Z,23.3
2018-11-06T11:46:05.367Z,23.3
2018-11-06T11:56:04.584Z,23.3
2018-11-06T12:06:03.795Z,23.3
2018-11-06T12:16:03.007Z,23.3
2018-11-06T12:26:02.215Z,23.4
2018-11-06T12:36:01.430Z,23.3
2018-11-06T12:46:00.641Z,23.3
2018-11-06T12:55:59.872Z,23.3
2018-11-06T13:05:59.067Z,23.3
2018-11-06T13:15:58.340Z,23.3
2018-11-06T13:25:57.527Z,23.3
2018-11-06T13:35:56.702Z,23.3
2018-11-06T13:45:55.911Z,23.3
2018-11-06T13:55:55.129Z,23.3
2018-11-06T14:05:54.341Z,23.3
2018-11-06T14:15:53.555Z,23.3
2018-11-06T14:25:52.770Z,23.3
2018-11-06T14:35:51.996Z,23.3
2018-11-06T14:45:51.189Z,23.3
2018-11-06T14:55:50.460Z,23.3
2018-11-06T15:05:49.622Z,23.3
2018-11-06T15:15:48.830Z,23.2
2018-11-06T15:25:48.037Z,23.2
2018-11-06T15:35:47.302Z,23.1
2018-11-06T15:45:46.470Z,23.1
2018-11-06T15:55:45.680Z,23.1
2018-11-06T16:05:44.893Z,23.1
2018-11-06T16:15:44.106Z,23.1
2018-11-06T16:25:43.317Z,23.1
2018-11-06T16:35:42.532Z,23
2018-11-06T16:45:41.742Z,23.1
2018-11-06T16:55:40.960Z,23.1
2018-11-06T17:15:39.393Z,23.1
2018-11-06T17:25:38.614Z,23.1
2018-11-06T17:35:37.820Z,23
2018-11-06T17:45:37.106Z,23.1
2018-11-06T17:55:36.284Z,23.1
2018-11-06T18:05:35.470Z,23.1
2018-11-06T18:15:34.673Z,23.1
2018-11-06T18:25:33.975Z,23.1
2018-11-06T18:35:33.105Z,23.1
2018-11-06T18:45:32.317Z,23.1
2018-11-06T18:55:31.532Z,23
2018-11-06T19:05:30.747Z,22.9
2018-11-06T19:15:29.967Z,23
2018-11-06T19:25:29.181Z,23
2018-11-06T19:35:28.391Z,22.9
2018-11-06T19:45:27.605Z,22.9
2018-11-06T19:55:26.822Z,22.9
2018-11-06T20:05:26.077Z,22.9
2018-11-06T20:15:25.247Z,22.9
2018-11-06T20:25:24.466Z,22.9
2018-11-06T20:35:23.737Z,22.9
2018-11-06T20:45:22.896Z,22.9
2018-11-06T20:55:22.114Z,22.9
2018-11-06T21:05:21.321Z,22.9
2018-11-06T21:15:20.540Z,22.9
2018-11-06T21:25:19.845Z,22.9
2018-11-06T21:35:18.963Z,22.9
2018-11-06T21:45:18.259Z,22.9
2018-11-06T21:55:17.409Z,22.9
2018-11-06T22:05:16.607Z,22.9
2018-11-06T22:15:15.821Z,22.9
2018-11-06T22:25:15.033Z,22.8
2018-11-06T22:35:14.249Z,22.8
2018-11-06T22:45:13.462Z,22.8
2018-11-06T22:55:12.679Z,22.9
2018-11-06T23:05:11.891Z,22.8
2018-11-06T23:15:11.101Z,22.8
2018-11-06T23:25:10.320Z,22.8
2018-11-06T23:35:09.527Z,22.8
2018-11-06T23:45:08.739Z,22.8
2018-11-06T23:55:07.997Z,22.8
